Time;durP1;ratioP1;P1;durP2;ratioP2;P2;SDS_P1;SDS_P2;PMS_P1;PMS_P2;Temp;Humidity;BMP_temperature;BMP_pressure;BME280_temperature;BME280_humidity;BME280_pressure;Samples;Min_cycle;Max_cycle;Signal;HPM_P1;HPM_P2
2022/07/26 00:00:50;;;;;;;7.47;6.88;;;23.50;99.90;;;;;;6153011;23;20520;-74
2022/07/26 00:03:16;;;;;;;6.95;5.88;;;23.50;99.90;;;;;;6154184;23;20540;-74
2022/07/26 00:05:42;;;;;;;7.72;7.03;;;23.50;99.90;;;;;;6154258;23;20462;-74
2022/07/26 00:08:11;;;;;;;7.45;6.85;;;23.40;99.90;;;;;;6154138;23;20539;-75
2022/07/26 00:10:47;;;;;;;9.82;6.45;;;23.30;99.90;;;;;;6153666;23;20154;-74
2022/07/26 00:13:15;;;;;;;8.65;7.28;;;23.20;99.90;;;;;;6154076;23;20173;-74
2022/07/26 00:15:41;;;;;;;12.02;7.25;;;23.10;99.90;;;;;;6154653;23;20157;-74
2022/07/26 00:18:06;;;;;;;7.85;7.13;;;23.00;99.90;;;;;;6127733;23;20181;-74
2022/07/26 00:20:32;;;;;;;5.75;5.15;;;22.90;99.90;;;;;;6153538;23;20204;-73
2022/07/26 00:22:58;;;;;;;5.57;5.07;;;22.90;99.90;;;;;;6153982;23;20180;-75
2022/07/26 00:25:23;;;;;;;9.57;5.70;;;23.00;99.90;;;;;;6153944;23;20520;-74
2022/07/26 00:27:49;;;;;;;13.50;7.15;;;22.90;99.90;;;;;;6154649;23;20523;-74
2022/07/26 00:30:15;;;;;;;10.43;7.05;;;22.90;99.90;;;;;;6153833;23;20169;-74
2022/07/26 00:32:40;;;;;;;7.13;6.05;;;22.80;99.90;;;;;;6154030;23;20169;-75
2022/07/26 00:35:07;;;;;;;6.80;5.97;;;22.70;99.90;;;;;;6153549;23;20232;-74
2022/07/26 00:37:32;;;;;;;7.60;6.90;;;22.60;99.90;;;;;;6154036;23;20146;-74
2022/07/26 00:39:58;;;;;;;7.32;6.57;;;22.50;99.90;;;;;;6153791;23;20571;-74
2022/07/26 00:42:24;;;;;;;5.68;5.13;;;22.40;99.90;;;;;;6154192;23;20165;-74
2022/07/26 00:44:49;;;;;;;7.35;5.97;;;22.30;99.90;;;;;;6153701;23;20195;-74
2022/07/26 00:47:15;;;;;;;5.55;5.05;;;22.30;99.90;;;;;;6154374;23;20213;-74
2022/07/26 00:49:42;;;;;;;5.65;5.05;;;22.30;99.90;;;;;;6153921;23;20199;-76
2022/07/26 00:52:08;;;;;;;6.40;5.80;;;22.30;99.90;;;;;;6153571;23;20176;-76
2022/07/26 00:54:36;;;;;;;5.85;5.35;;;22.20;99.90;;;;;;6153511;23;20173;-76
2022/07/26 00:57:02;;;;;;;7.28;6.03;;;22.20;99.90;;;;;;6153932;23;20153;-76
2022/07/26 00:59:28;;;;;;;6.50;6.00;;;22.10;99.90;;;;;;6153713;23;20685;-77
2022/07/26 01:01:54;;;;;;;6.47;5.95;;;22.00;99.90;;;;;;6154007;23;20219;-76
2022/07/26 01:04:20;;;;;;;7.90;6.57;;;21.90;99.90;;;;;;6153391;23;20157;-76
2022/07/26 01:06:47;;;;;;;6.05;5.55;;;21.80;99.90;;;;;;6153701;23;20207;-77
2022/07/26 01:09:15;;;;;;;6.03;5.53;;;21.70;99.90;;;;;;6153212;23;20208;-77
2022/07/26 01:11:41;;;;;;;9.65;5.70;;;21.70;99.90;;;;;;6153413;23;20154;-77
2022/07/26 01:14:07;;;;;;;5.55;5.10;;;21.70;99.90;;;;;;6154174;23;20150;-77
2022/07/26 01:16:33;;;;;;;6.20;5.60;;;21.60;99.90;;;;;;6153983;23;20150;-77
2022/07/26 01:18:59;;;;;;;5.28;4.88;;;21.60;99.90;;;;;;6153163;23;20231;-77
2022/07/26 01:21:29;;;;;;;5.28;4.78;;;21.70;99.90;;;;;;6156013;23;20173;-78
2022/07/26 01:23:54;;;;;;;5.82;5.22;;;21.60;99.90;;;;;;6157041;23;20146;-77
2022/07/26 01:26:20;;;;;;;5.75;5.25;;;21.50;99.90;;;;;;6155518;23;20205;-76
2022/07/26 01:28:48;;;;;;;6.47;4.50;;;21.50;99.90;;;;;;6155055;23;20159;-77
2022/07/26 01:31:14;;;;;;;6.47;5.97;;;21.50;99.90;;;;;;6155731;23;20470;-77
2022/07/26 01:33:41;;;;;;;5.55;5.03;;;21.50;99.90;;;;;;6155666;23;20649;-77
2022/07/26 01:36:07;;;;;;;7.72;4.50;;;21.40;99.90;;;;;;6155408;23;20499;-77
2022/07/26 01:38:33;;;;;;;6.35;5.85;;;21.40;99.90;;;;;;6155096;23;20258;-76
2022/07/26 01:40:59;;;;;;;6.40;4.65;;;21.30;99.90;;;;;;6155534;23;20204;-77
2022/07/26 01:43:24;;;;;;;6.25;5.20;;;21.30;99.90;;;;;;6155627;23;20607;-77
2022/07/26 01:45:50;;;;;;;6.15;5.22;;;21.30;99.90;;;;;;6154971;23;20152;-76
2022/07/26 01:48:16;;;;;;;5.25;4.75;;;21.20;99.90;;;;;;6155437;23;20157;-76
2022/07/26 01:50:42;;;;;;;7.63;5.18;;;21.20;99.90;;;;;;6129231;23;20196;-76
2022/07/26 01:53:08;;;;;;;5.13;4.65;;;21.20;99.90;;;;;;6155464;23;20173;-77
2022/07/26 01:55:34;;;;;;;5.07;4.63;;;21.20;99.90;;;;;;6155460;23;20149;-76
2022/07/26 01:58:00;;;;;;;5.22;4.78;;;21.20;99.90;;;;;;6155420;23;20247;-76
2022/07/26 02:00:26;;;;;;;5.35;4.43;;;21.10;99.90;;;;;;6155201;23;20173;-76
2022/07/26 02:02:51;;;;;;;5.15;4.75;;;21.10;99.90;;;;;;6154684;23;20215;-76
2022/07/26 02:05:17;;;;;;;4.95;4.55;;;21.10;99.90;;;;;;6155178;23;20137;-77
2022/07/26 02:07:43;;;;;;;7.25;4.30;;;21.10;99.90;;;;;;6129010;23;20157;-76
2022/07/26 02:10:11;;;;;;;5.65;4.50;;;21.10;99.90;;;;;;6155231;23;20153;-77
2022/07/26 02:12:36;;;;;;;5.20;4.70;;;21.00;99.90;;;;;;6155526;23;20169;-77
2022/07/26 02:15:04;;;;;;;5.13;4.75;;;21.00;99.90;;;;;;6155588;23;20158;-77
2022/07/26 02:17:30;;;;;;;5.28;4.78;;;20.90;99.90;;;;;;6155608;23;20492;-77
2022/07/26 02:19:55;;;;;;;4.43;4.03;;;20.90;99.90;;;;;;6154492;23;20207;-77
2022/07/26 02:22:21;;;;;;;5.47;4.20;;;20.90;99.90;;;;;;6128864;23;20772;-76
2022/07/26 02:24:48;;;;;;;4.88;4.40;;;20.90;99.90;;;;;;6128733;23;20154;-77
2022/07/26 02:27:14;;;;;;;5.80;4.07;;;20.90;99.90;;;;;;6155283;23;20156;-76
2022/07/26 02:29:40;;;;;;;4.38;4.03;;;20.90;99.90;;;;;;6154675;23;20175;-76
2022/07/26 02:32:06;;;;;;;4.45;4.05;;;20.80;99.90;;;;;;6154438;23;20635;-76
2022/07/26 02:34:32;;;;;;;4.82;4.35;;;20.80;99.90;;;;;;6129086;23;20157;-76
2022/07/26 02:36:58;;;;;;;4.55;4.15;;;20.70;99.90;;;;;;6155141;23;20153;-77
2022/07/26 02:39:26;;;;;;;4.80;4.35;;;20.80;99.90;;;;;;6153882;23;20539;-76
2022/07/26 02:41:56;;;;;;;4.68;4.28;;;20.80;99.90;;;;;;6155172;23;20169;-75
2022/07/26 02:44:24;;;;;;;3.75;3.42;;;20.80;99.90;;;;;;6155141;23;20150;-76
2022/07/26 02:46:50;;;;;;;4.03;3.72;;;20.80;99.90;;;;;;6154637;23;20153;-76
2022/07/26 02:49:16;;;;;;;5.72;3.90;;;20.80;99.90;;;;;;6154902;23;20497;-77
2022/07/26 02:51:41;;;;;;;4.80;4.40;;;20.90;99.90;;;;;;6155027;23;20158;-76
2022/07/26 02:54:07;;;;;;;4.60;4.20;;;20.80;99.90;;;;;;6155002;23;20180;-76
2022/07/26 02:56:33;;;;;;;4.97;4.47;;;20.70;99.90;;;;;;6154255;23;20160;-75
2022/07/26 02:58:58;;;;;;;4.47;3.78;;;20.70;99.90;;;;;;6154416;23;20197;-76
2022/07/26 03:01:24;;;;;;;4.50;4.10;;;20.60;99.90;;;;;;6154762;23;20150;-77
2022/07/26 03:03:50;;;;;;;5.22;4.72;;;20.60;99.90;;;;;;6154711;23;20197;-77
2022/07/26 03:06:16;;;;;;;5.50;4.18;;;20.60;99.90;;;;;;6155106;23;20157;-77
2022/07/26 03:08:41;;;;;;;5.68;3.50;;;20.60;99.90;;;;;;6154729;23;20233;-77
2022/07/26 03:11:07;;;;;;;5.00;4.50;;;20.60;99.90;;;;;;6155462;23;20153;-77
2022/07/26 03:13:33;;;;;;;4.85;4.45;;;20.60;99.90;;;;;;6153962;23;20176;-77
2022/07/26 03:15:59;;;;;;;4.53;4.13;;;20.50;99.90;;;;;;6128380;23;20164;-76
2022/07/26 03:18:24;;;;;;;6.28;4.68;;;20.50;99.90;;;;;;6154570;23;20173;-76
2022/07/26 03:20:50;;;;;;;5.30;4.43;;;20.50;99.90;;;;;;6154427;23;20481;-77
2022/07/26 03:23:16;;;;;;;4.65;4.35;;;20.50;99.90;;;;;;6154484;23;20173;-77
2022/07/26 03:25:42;;;;;;;4.72;4.32;;;20.40;99.90;;;;;;6129546;23;20173;-77
2022/07/26 03:28:07;;;;;;;5.45;4.63;;;20.40;99.90;;;;;;6154942;23;20177;-78
2022/07/26 03:30:33;;;;;;;6.30;4.70;;;20.40;99.90;;;;;;6153280;23;20164;-75
2022/07/26 03:32:59;;;;;;;4.55;4.22;;;20.40;99.90;;;;;;6154535;23;20296;-75
2022/07/26 03:35:25;;;;;;;4.30;3.85;;;20.40;99.90;;;;;;6154939;23;20196;-76
2022/07/26 03:37:51;;;;;;;3.67;3.38;;;20.50;99.90;;;;;;6154348;23;20156;-76
2022/07/26 03:40:18;;;;;;;3.70;3.50;;;20.40;99.90;;;;;;6154445;23;20530;-78
2022/07/26 03:42:45;;;;;;;5.15;4.75;;;20.40;99.90;;;;;;6154882;23;20223;-77
2022/07/26 03:45:11;;;;;;;5.82;4.97;;;20.40;99.90;;;;;;6154629;23;20149;-77
2022/07/26 03:47:37;;;;;;;6.30;5.35;;;20.30;99.90;;;;;;6154604;23;20528;-77
2022/07/26 03:50:06;;;;;;;5.18;4.72;;;20.20;99.90;;;;;;6154037;23;20157;-77
2022/07/26 03:52:32;;;;;;;4.88;4.47;;;20.20;99.90;;;;;;6151685;23;20172;-77
2022/07/26 03:54:58;;;;;;;4.50;4.20;;;20.20;99.90;;;;;;6154324;23;20154;-77
2022/07/26 03:57:23;;;;;;;4.82;4.20;;;20.20;99.90;;;;;;6154397;23;20165;-77
2022/07/26 03:59:49;;;;;;;4.90;4.57;;;20.20;99.90;;;;;;6154212;23;20289;-77
2022/07/26 04:02:15;;;;;;;5.93;4.68;;;20.30;99.90;;;;;;6154472;23;20227;-76
2022/07/26 04:04:40;;;;;;;4.85;4.43;;;20.40;99.90;;;;;;6153480;23;20146;-77
2022/07/26 04:07:06;;;;;;;4.70;4.35;;;20.50;99.90;;;;;;6154144;23;20203;-76
2022/07/26 04:09:32;;;;;;;5.57;4.35;;;20.50;99.90;;;;;;6154303;23;20153;-76
2022/07/26 04:11:57;;;;;;;4.70;4.38;;;20.50;99.90;;;;;;6153797;23;20169;-76
2022/07/26 04:14:23;;;;;;;5.13;3.85;;;20.50;99.90;;;;;;6154188;23;20493;-77
2022/07/26 04:16:48;;;;;;;5.13;4.63;;;20.50;99.90;;;;;;6153806;23;20184;-76
2022/07/26 04:19:14;;;;;;;5.28;4.78;;;20.60;99.90;;;;;;6153860;23;20177;-76
2022/07/26 04:21:39;;;;;;;4.75;4.40;;;20.60;99.90;;;;;;6127867;23;20549;-75
2022/07/26 04:24:05;;;;;;;5.10;4.60;;;20.70;99.90;;;;;;6153642;23;20157;-75
2022/07/26 04:26:31;;;;;;;5.20;4.70;;;20.70;99.90;;;;;;6153680;23;20518;-76
2022/07/26 04:28:57;;;;;;;5.05;4.43;;;20.70;99.90;;;;;;6153725;23;20164;-76
2022/07/26 04:31:23;;;;;;;5.18;4.65;;;20.70;99.90;;;;;;6153613;23;20153;-77
2022/07/26 04:33:50;;;;;;;5.60;5.13;;;20.80;99.90;;;;;;6153814;23;20630;-77
2022/07/26 04:36:16;;;;;;;5.45;4.95;;;20.80;99.90;;;;;;6153992;23;20157;-76
2022/07/26 04:38:41;;;;;;;6.72;5.35;;;20.80;99.90;;;;;;6153446;23;20654;-77
2022/07/26 04:41:07;;;;;;;4.45;4.05;;;20.90;99.90;;;;;;6152833;23;20134;-77
2022/07/26 04:43:33;;;;;;;4.72;4.20;;;20.80;99.90;;;;;;6153362;23;20176;-77
2022/07/26 04:45:59;;;;;;;4.85;4.55;;;20.90;99.90;;;;;;6154513;23;20148;-77
2022/07/26 04:48:25;;;;;;;5.13;4.72;;;20.90;99.90;;;;;;6154050;23;20232;-77
2022/07/26 04:50:51;;;;;;;6.05;5.38;;;20.90;99.90;;;;;;6153399;23;20156;-77
2022/07/26 04:53:17;;;;;;;5.47;4.93;;;20.90;99.90;;;;;;6153890;23;20528;-77
2022/07/26 04:55:42;;;;;;;5.25;4.80;;;20.90;99.90;;;;;;6156043;23;20154;-75
2022/07/26 04:58:08;;;;;;;6.68;4.95;;;20.80;99.90;;;;;;6155601;23;20176;-74
2022/07/26 05:00:34;;;;;;;8.52;5.95;;;20.90;99.90;;;;;;6130200;23;20158;-74
2022/07/26 05:03:01;;;;;;;5.75;5.20;;;21.00;99.90;;;;;;6156404;23;20207;-74
2022/07/26 05:05:29;;;;;;;5.57;5.07;;;21.00;99.90;;;;;;6156373;23;20159;-74
2022/07/26 05:07:56;;;;;;;7.03;5.10;;;21.10;99.90;;;;;;6156589;23;20149;-74
2022/07/26 05:10:34;;;;;;;6.68;5.07;;;21.20;99.90;;;;;;6156677;23;20153;-75
2022/07/26 05:13:02;;;;;;;5.35;4.95;;;21.20;99.90;;;;;;6156396;23;20646;-75
2022/07/26 05:15:29;;;;;;;6.88;5.75;;;21.30;99.90;;;;;;6155572;23;20137;-75
2022/07/26 05:17:56;;;;;;;5.32;4.82;;;21.30;99.90;;;;;;6156494;23;20149;-74
2022/07/26 05:20:22;;;;;;;6.20;5.60;;;21.20;99.90;;;;;;6156367;23;20158;-75
2022/07/26 05:22:47;;;;;;;5.53;4.88;;;21.30;99.90;;;;;;6155158;23;20256;-76
2022/07/26 05:25:13;;;;;;;6.15;5.50;;;21.30;99.90;;;;;;6156025;23;20181;-76
2022/07/26 05:27:40;;;;;;;7.38;5.32;;;21.40;99.90;;;;;;6156602;23;20249;-77
2022/07/26 05:30:07;;;;;;;5.32;4.85;;;21.50;99.90;;;;;;6156923;23;20153;-76
2022/07/26 05:32:32;;;;;;;5.97;5.43;;;21.50;99.90;;;;;;6156119;23;20173;-76
2022/07/26 05:34:58;;;;;;;6.38;5.75;;;21.60;99.90;;;;;;6156025;23;20164;-75
2022/07/26 05:37:24;;;;;;;6.50;5.88;;;21.60;99.90;;;;;;6155882;23;20486;-76
2022/07/26 05:39:49;;;;;;;5.97;5.47;;;21.60;99.90;;;;;;6154650;23;20544;-76
2022/07/26 05:42:15;;;;;;;5.78;5.28;;;21.60;99.90;;;;;;6156120;23;20253;-76
2022/07/26 05:44:40;;;;;;;6.05;5.55;;;21.70;99.90;;;;;;6155158;23;20626;-77
2022/07/26 05:47:06;;;;;;;5.90;5.45;;;21.70;99.90;;;;;;6153949;23;20232;-75
2022/07/26 05:49:32;;;;;;;6.43;5.40;;;21.90;99.90;;;;;;6154218;23;20150;-74
2022/07/26 05:51:58;;;;;;;6.32;5.82;;;22.00;99.90;;;;;;6129769;23;20182;-74
2022/07/26 05:54:23;;;;;;;7.20;5.57;;;22.30;99.90;;;;;;6155906;23;20177;-75
2022/07/26 05:56:49;;;;;;;14.82;6.63;;;22.50;99.90;;;;;;6155789;23;20153;-75
2022/07/26 05:59:14;;;;;;;8.20;5.88;;;22.60;99.90;;;;;;6155229;23;20185;-75
2022/07/26 06:01:40;;;;;;;6.95;6.25;;;22.70;99.90;;;;;;6156044;23;20208;-73
2022/07/26 06:04:07;;;;;;;6.97;6.10;;;23.00;99.90;;;;;;6155747;23;20154;-74
2022/07/26 06:06:33;;;;;;;6.25;5.75;;;23.30;99.90;;;;;;6128554;23;20157;-74
2022/07/26 06:08:59;;;;;;;5.88;5.38;;;23.60;99.90;;;;;;6155241;23;20621;-75
2022/07/26 06:11:24;;;;;;;7.60;5.75;;;23.90;99.90;;;;;;6155353;23;20156;-75
2022/07/26 06:13:50;;;;;;;5.97;5.35;;;24.00;99.90;;;;;;6155223;23;20550;-74
2022/07/26 06:16:16;;;;;;;7.90;5.30;;;24.10;99.90;;;;;;6155352;23;20153;-74
2022/07/26 06:18:42;;;;;;;6.45;5.65;;;24.00;99.90;;;;;;6129182;23;20185;-75
2022/07/26 06:21:08;;;;;;;6.18;5.50;;;24.10;99.90;;;;;;6156016;23;20142;-75
2022/07/26 06:23:33;;;;;;;15.13;6.00;;;24.20;99.90;;;;;;6129495;23;20258;-75
2022/07/26 06:25:59;;;;;;;6.13;4.65;;;24.20;99.90;;;;;;6155516;23;20153;-74
2022/07/26 06:28:24;;;;;;;5.05;4.57;;;24.40;99.90;;;;;;6155514;23;20150;-75
2022/07/26 06:30:50;;;;;;;7.65;5.22;;;24.50;99.90;;;;;;6154806;23;20152;-74
2022/07/26 06:33:16;;;;;;;6.25;4.70;;;24.80;99.90;;;;;;6154366;23;20203;-74
2022/07/26 06:35:41;;;;;;;5.38;4.82;;;25.00;99.90;;;;;;6153917;23;20157;-73
2022/07/26 06:38:08;;;;;;;4.75;4.35;;;25.20;99.90;;;;;;6154518;23;20153;-73
2022/07/26 06:40:34;;;;;;;5.22;4.72;;;25.60;99.90;;;;;;6153721;23;20206;-73
2022/07/26 06:43:00;;;;;;;4.60;4.18;;;25.50;99.90;;;;;;6153902;23;20248;-71
2022/07/26 06:45:26;;;;;;;4.40;4.00;;;25.60;99.90;;;;;;6154488;23;20598;-71
2022/07/26 06:47:52;;;;;;;4.10;3.70;;;25.70;99.90;;;;;;6154766;23;20172;-71
2022/07/26 06:50:18;;;;;;;5.18;3.30;;;25.80;99.90;;;;;;6158828;23;20486;-72
2022/07/26 06:52:43;;;;;;;4.32;3.88;;;25.90;99.90;;;;;;6158730;23;20169;-70
2022/07/26 06:55:09;;;;;;;3.50;3.17;;;26.10;99.90;;;;;;6160015;23;20157;-71
2022/07/26 06:57:35;;;;;;;5.00;3.30;;;26.20;99.90;;;;;;6157361;23;20236;-71
2022/07/26 07:00:06;;;;;;;3.53;2.47;;;26.10;99.90;;;;;;6156292;23;20201;-71
2022/07/26 07:02:31;;;;;;;2.85;2.65;;;26.10;99.90;;;;;;6156683;23;20277;-71
2022/07/26 07:04:57;;;;;;;7.15;3.08;;;25.80;99.90;;;;;;6157109;23;20557;-71
2022/07/26 07:07:23;;;;;;;5.82;2.75;;;25.40;99.90;;;;;;6158120;23;20145;-71
2022/07/26 07:09:48;;;;;;;4.85;3.10;;;25.00;99.90;;;;;;6157319;23;20153;-71
2022/07/26 07:12:14;;;;;;;3.92;2.67;;;24.70;99.90;;;;;;6157198;23;20237;-72
2022/07/26 07:14:40;;;;;;;2.72;2.50;;;24.60;99.90;;;;;;6156397;23;20197;-72
2022/07/26 07:17:07;;;;;;;3.53;2.67;;;24.60;99.90;;;;;;6155822;23;20153;-72
2022/07/26 07:19:35;;;;;;;4.25;3.00;;;24.70;99.90;;;;;;6155894;23;20173;-72
2022/07/26 07:22:02;;;;;;;3.33;2.60;;;24.90;99.90;;;;;;6156669;23;20508;-72
2022/07/26 07:24:28;;;;;;;4.13;2.58;;;25.40;99.90;;;;;;6157869;23;20414;-71
2022/07/26 07:26:53;;;;;;;2.70;2.60;;;25.90;99.90;;;;;;6159722;23;20145;-71
2022/07/26 07:29:19;;;;;;;4.25;2.80;;;26.30;99.90;;;;;;6158983;23;20196;-71
2022/07/26 07:31:46;;;;;;;2.85;2.65;;;26.50;99.60;;;;;;6158907;23;20490;-71
2022/07/26 07:34:13;;;;;;;3.05;2.60;;;26.50;99.50;;;;;;6157744;23;20591;-71
2022/07/26 07:36:39;;;;;;;3.30;2.72;;;26.50;99.90;;;;;;6157822;23;20197;-71
2022/07/26 07:39:04;;;;;;;2.60;2.40;;;26.60;99.90;;;;;;6156131;23;20181;-71
2022/07/26 07:41:33;;;;;;;4.88;2.72;;;26.50;98.70;;;;;;6156289;23;20534;-71
2022/07/26 07:43:59;;;;;;;5.72;2.67;;;26.50;99.90;;;;;;6155817;23;20629;-71
2022/07/26 07:46:25;;;;;;;5.18;2.80;;;26.20;99.00;;;;;;6156204;23;20153;-71
2022/07/26 07:48:50;;;;;;;2.75;2.55;;;26.00;99.90;;;;;;6155918;23;20154;-71
2022/07/26 07:51:16;;;;;;;2.47;2.25;;;25.80;99.90;;;;;;6156110;23;20236;-71
2022/07/26 07:53:42;;;;;;;2.85;2.30;;;25.70;98.50;;;;;;6156022;23;20512;-71
2022/07/26 07:56:07;;;;;;;2.38;2.17;;;25.60;97.10;;;;;;6131064;23;20157;-72
2022/07/26 07:58:33;;;;;;;4.38;2.20;;;25.70;96.20;;;;;;6156323;23;20622;-71
2022/07/26 08:00:58;;;;;;;3.35;2.33;;;25.80;96.10;;;;;;6157121;23;20154;-71
2022/07/26 08:03:24;;;;;;;2.22;2.03;;;26.20;93.80;;;;;;6130581;23;20177;-71
2022/07/26 08:05:50;;;;;;;3.88;2.10;;;26.40;92.70;;;;;;6157404;23;20157;-71
2022/07/26 08:08:15;;;;;;;3.40;1.98;;;26.70;91.30;;;;;;6157740;23;20150;-71
2022/07/26 08:10:41;;;;;;;3.40;2.47;;;27.00;90.40;;;;;;6157520;23;20154;-72
2022/07/26 08:13:07;;;;;;;4.28;1.92;;;27.20;90.70;;;;;;6158507;23;20169;-71
2022/07/26 08:15:32;;;;;;;4.18;2.30;;;27.60;89.90;;;;;;6158801;23;20150;-71
2022/07/26 08:17:58;;;;;;;2.33;2.13;;;28.00;86.90;;;;;;6133075;23;20602;-71
2022/07/26 08:20:24;;;;;;;2.42;2.22;;;28.20;88.10;;;;;;6156551;23;20172;-71
2022/07/26 08:22:49;;;;;;;6.10;2.58;;;28.20;86.00;;;;;;6156753;23;20169;-72
2022/07/26 08:25:15;;;;;;;2.40;2.20;;;27.90;86.80;;;;;;6158582;23;20233;-72
2022/07/26 08:27:41;;;;;;;3.15;2.47;;;27.50;90.80;;;;;;6160502;23;20184;-69
2022/07/26 08:30:07;;;;;;;2.42;2.10;;;27.30;91.50;;;;;;6162381;23;20160;-70
2022/07/26 08:32:33;;;;;;;2.65;2.40;;;27.30;89.00;;;;;;6159434;23;20177;-71
2022/07/26 08:34:58;;;;;;;3.13;2.53;;;27.20;88.30;;;;;;6133488;23;20154;-70
2022/07/26 08:37:24;;;;;;;2.13;2.00;;;26.90;90.70;;;;;;6158500;23;20179;-72
2022/07/26 08:39:50;;;;;;;3.45;2.35;;;26.90;90.10;;;;;;6160165;23;20196;-70
2022/07/26 08:42:18;;;;;;;2.92;2.30;;;26.80;90.50;;;;;;6162678;23;20173;-70
2022/07/26 08:44:46;;;;;;;4.35;2.90;;;26.60;91.50;;;;;;6161908;23;20153;-70
2022/07/26 08:47:13;;;;;;;2.65;2.47;;;26.70;91.00;;;;;;6162770;23;20153;-70
2022/07/26 08:49:39;;;;;;;2.72;2.50;;;26.70;91.10;;;;;;6162948;23;20176;-69
2022/07/26 08:52:06;;;;;;;2.38;1.88;;;27.10;91.60;;;;;;6163705;23;20247;-70
2022/07/26 08:54:32;;;;;;;5.40;1.92;;;27.40;87.50;;;;;;6161505;23;20471;-73
2022/07/26 08:56:58;;;;;;;6.75;2.00;;;27.70;84.10;;;;;;6131918;23;20153;-73
2022/07/26 08:59:24;;;;;;;8.23;1.92;;;28.00;80.90;;;;;;6162356;23;20204;-73
2022/07/26 09:01:51;;;;;;;3.53;2.20;;;27.90;78.10;;;;;;6161458;23;20243;-72
2022/07/26 09:04:20;;;;;;;7.03;2.05;;;27.90;79.80;;;;;;6137485;23;20173;-73
2022/07/26 09:07:07;;;;;;;2.13;1.92;;;27.90;81.60;;;;;;6164662;23;20172;-73
2022/07/26 09:09:39;;;;;;;2.10;2.00;;;27.60;76.80;;;;;;6134573;23;20161;-73
2022/07/26 09:12:18;;;;;;;2.15;2.05;;;27.60;81.70;;;;;;6161041;23;20199;-73
2022/07/26 09:14:45;;;;;;;5.35;2.25;;;27.60;78.50;;;;;;6160201;23;20169;-71
2022/07/26 09:17:12;;;;;;;3.13;2.22;;;27.50;77.20;;;;;;6161187;23;20150;-70
2022/07/26 09:19:38;;;;;;;2.22;2.03;;;27.50;77.40;;;;;;6156514;23;20562;-70
2022/07/26 09:22:10;;;;;;;3.20;2.25;;;27.40;82.90;;;;;;6159865;23;20307;-70
2022/07/26 09:24:42;;;;;;;2.08;1.88;;;27.70;79.40;;;;;;6164706;23;20145;-70
2022/07/26 09:27:13;;;;;;;2.20;2.10;;;28.10;76.40;;;;;;6161597;23;20177;-70
2022/07/26 09:29:45;;;;;;;3.40;2.30;;;28.30;75.60;;;;;;6163923;23;20177;-72
2022/07/26 09:32:17;;;;;;;2.00;1.88;;;28.40;77.60;;;;;;6168732;23;20248;-73
2022/07/26 09:34:50;;;;;;;1.90;1.80;;;28.50;74.90;;;;;;6169536;23;20157;-72
2022/07/26 09:37:16;;;;;;;1.65;1.55;;;28.90;67.40;;;;;;6170085;23;20145;-72
2022/07/26 09:39:55;;;;;;;2.00;1.90;;;29.70;66.00;;;;;;6161399;23;20197;-70
2022/07/26 09:42:23;;;;;;;2.28;1.70;;;31.90;59.60;;;;;;6164251;23;20189;-69
2022/07/26 09:44:48;;;;;;;2.28;1.60;;;33.50;56.40;;;;;;6161413;23;20153;-70
2022/07/26 09:47:14;;;;;;;2.58;1.70;;;35.40;53.00;;;;;;6164125;23;20149;-70
2022/07/26 09:49:41;;;;;;;1.75;1.33;;;36.90;49.10;;;;;;6162800;23;20220;-70
2022/07/26 09:52:20;;;;;;;2.10;1.40;;;37.80;45.30;;;;;;6160938;23;20177;-71
2022/07/26 09:54:48;;;;;;;3.65;1.63;;;37.20;45.10;;;;;;6134647;23;20235;-70
2022/07/26 09:57:18;;;;;;;2.50;1.55;;;37.50;45.40;;;;;;6163586;23;20164;-71
2022/07/26 09:59:45;;;;;;;1.85;1.65;;;38.80;44.60;;;;;;6161620;23;20288;-71
2022/07/26 10:02:12;;;;;;;1.40;1.30;;;40.00;42.50;;;;;;6161884;23;20192;-71
2022/07/26 10:04:41;;;;;;;4.90;1.50;;;40.00;41.90;;;;;;6137058;23;20160;-71
2022/07/26 10:07:09;;;;;;;1.40;1.30;;;40.50;41.40;;;;;;6162027;23;20652;-71
2022/07/26 10:10:10;;;;;;;4.22;1.40;;;41.70;38.60;;;;;;6162570;23;20176;-71
2022/07/26 10:12:36;;;;;;;1.33;1.08;;;39.80;41.00;;;;;;6115369;23;20184;-72
2022/07/26 10:15:02;;;;;;;1.58;1.48;;;37.70;42.20;;;;;;6162525;23;20157;-70
2022/07/26 10:17:28;;;;;;;1.50;1.40;;;37.70;43.40;;;;;;6162980;23;20153;-71
2022/07/26 10:19:54;;;;;;;1.33;1.23;;;38.90;41.60;;;;;;6136343;23;20809;-70
2022/07/26 10:22:29;;;;;;;2.25;1.55;;;40.30;39.50;;;;;;6161419;23;20199;-69
2022/07/26 10:24:56;;;;;;;2.78;1.63;;;40.60;39.00;;;;;;6162108;23;20133;-70
2022/07/26 10:27:41;;;;;;;3.13;1.45;;;40.50;39.20;;;;;;6161995;23;20152;-70
2022/07/26 10:30:16;;;;;;;1.88;1.30;;;41.10;38.40;;;;;;6163114;23;20160;-70
2022/07/26 10:33:13;;;;;;;2.38;1.20;;;41.50;37.80;;;;;;6161682;23;20194;-70
2022/07/26 10:35:43;;;;;;;2.38;0.95;;;42.00;37.10;;;;;;6162353;23;20196;-71
2022/07/26 10:38:08;;;;;;;2.30;1.70;;;42.70;36.20;;;;;;6161455;23;20485;-71
2022/07/26 10:40:36;;;;;;;2.15;1.23;;;42.40;36.60;;;;;;6134381;23;20217;-70
2022/07/26 10:43:20;;;;;;;1.67;1.55;;;41.40;37.30;;;;;;6135605;23;20208;-69
2022/07/26 10:45:46;;;;;;;1.50;1.40;;;39.40;39.30;;;;;;6158177;23;20141;-69
2022/07/26 10:48:22;;;;;;;1.75;1.45;;;37.60;41.40;;;;;;6133135;23;20614;-71
2022/07/26 10:50:52;;;;;;;2.08;1.60;;;35.60;43.70;;;;;;6157476;23;20133;-71
2022/07/26 10:53:25;;;;;;;1.30;1.30;;;33.80;45.90;;;;;;6158566;23;20842;-71
2022/07/26 10:55:53;;;;;;;2.10;1.65;;;32.40;49.20;;;;;;6158632;23;20175;-69
2022/07/26 10:58:24;;;;;;;2.83;1.60;;;31.70;50.90;;;;;;6155752;23;20164;-70
2022/07/26 11:00:57;;;;;;;1.95;1.70;;;32.00;50.40;;;;;;6154644;23;20603;-70
2022/07/26 11:03:23;;;;;;;6.85;1.88;;;32.50;48.70;;;;;;6156441;23;20188;-71
2022/07/26 11:05:50;;;;;;;1.35;1.25;;;32.20;49.60;;;;;;6158412;23;20285;-71
2022/07/26 11:08:15;;;;;;;1.50;1.40;;;31.90;50.50;;;;;;6158378;23;20606;-71
2022/07/26 11:10:43;;;;;;;1.40;1.30;;;31.60;50.80;;;;;;6159418;23;20145;-71
2022/07/26 11:13:15;;;;;;;2.15;1.38;;;31.30;51.70;;;;;;6159283;23;20488;-70
2022/07/26 11:15:44;;;;;;;2.75;1.70;;;31.10;51.70;;;;;;6158933;23;20153;-71
2022/07/26 11:18:13;;;;;;;1.73;1.63;;;31.00;53.60;;;;;;6159189;23;20145;-71
2022/07/26 11:20:39;;;;;;;1.13;1.13;;;31.50;51.80;;;;;;6156671;23;20650;-70
2022/07/26 11:23:28;;;;;;;1.40;1.30;;;31.80;52.30;;;;;;6155973;23;20176;-71
2022/07/26 11:26:15;;;;;;;2.05;1.75;;;32.10;51.40;;;;;;6156775;23;20148;-71
2022/07/26 11:29:08;;;;;;;2.92;1.65;;;32.10;51.50;;;;;;6157322;23;20136;-71
2022/07/26 11:31:36;;;;;;;1.75;1.65;;;31.80;52.40;;;;;;6152177;23;20211;-71
2022/07/26 11:34:04;;;;;;;1.77;1.67;;;31.40;52.80;;;;;;6130220;23;20157;-70
2022/07/26 11:36:36;;;;;;;1.40;1.30;;;31.50;53.70;;;;;;6155919;23;20149;-70
2022/07/26 11:39:04;;;;;;;3.13;1.40;;;31.70;51.70;;;;;;6156001;23;20169;-69
2022/07/26 11:41:30;;;;;;;1.40;1.17;;;31.70;52.20;;;;;;6158115;23;20228;-70
2022/07/26 11:43:57;;;;;;;1.50;1.40;;;32.40;51.50;;;;;;6158265;23;20145;-71
2022/07/26 11:46:32;;;;;;;1.70;1.60;;;33.80;49.40;;;;;;6157596;23;20137;-71
2022/07/26 11:48:57;;;;;;;1.45;1.35;;;34.00;48.90;;;;;;6153452;23;20140;-71
2022/07/26 11:51:24;;;;;;;3.83;1.50;;;34.70;47.70;;;;;;6154236;23;20152;-71
2022/07/26 11:53:58;;;;;;;1.40;1.40;;;34.70;47.70;;;;;;6154218;23;20172;-72
2022/07/26 11:56:24;;;;;;;1.63;1.52;;;34.80;47.40;;;;;;6153951;23;20209;-74
2022/07/26 11:58:52;;;;;;;1.60;1.50;;;35.90;46.20;;;;;;6153217;23;20184;-72
2022/07/26 12:01:19;;;;;;;1.67;1.33;;;36.50;45.70;;;;;;6153533;23;20148;-74
2022/07/26 12:03:48;;;;;;;1.52;1.42;;;37.20;43.70;;;;;;6152585;23;20279;-71
2022/07/26 12:06:16;;;;;;;1.95;1.50;;;36.50;45.50;;;;;;6153423;23;20598;-71
2022/07/26 12:08:45;;;;;;;1.70;1.60;;;36.30;45.00;;;;;;6153577;23;20153;-70
2022/07/26 12:11:12;;;;;;;1.30;1.30;;;36.30;45.30;;;;;;6127975;23;20527;-71
2022/07/26 12:13:59;;;;;;;1.25;1.25;;;36.60;44.40;;;;;;6153896;23;20176;-72
2022/07/26 12:16:42;;;;;;;1.40;1.30;;;37.20;44.30;;;;;;6154143;23;20257;-73
2022/07/26 12:19:15;;;;;;;1.60;1.50;;;37.30;43.70;;;;;;6153920;23;20260;-70
2022/07/26 12:21:43;;;;;;;1.45;1.35;;;37.80;44.10;;;;;;6154390;23;20133;-72
2022/07/26 12:24:10;;;;;;;2.20;1.27;;;38.50;42.20;;;;;;6153646;23;20152;-71
2022/07/26 12:26:36;;;;;;;1.80;1.20;;;38.70;41.90;;;;;;6153410;23;20153;-78
2022/07/26 12:32:07;;;;;;;2.20;1.25;;;38.30;41.80;;;;;;6035433;23;20182;-77
2022/07/26 12:34:34;;;;;;;1.88;1.45;;;37.20;43.10;;;;;;6131007;23;20164;-76
2022/07/26 12:37:16;;;;;;;1.40;1.35;;;37.30;43.70;;;;;;6153451;23;20495;-76
2022/07/26 12:39:59;;;;;;;3.55;1.30;;;36.90;43.40;;;;;;6126242;23;20207;-76
2022/07/26 12:42:28;;;;;;;2.08;1.40;;;35.80;45.00;;;;;;6153655;23;20171;-76
2022/07/26 12:44:54;;;;;;;2.28;1.48;;;35.20;45.80;;;;;;6153384;23;20145;-74
2022/07/26 12:47:20;;;;;;;2.17;1.30;;;35.80;46.40;;;;;;6152370;23;20157;-75
2022/07/26 12:49:46;;;;;;;1.38;1.38;;;36.50;44.80;;;;;;6153360;23;20137;-77